This is the latest recevied weather packets stored in our database for station/object W5LND-10. If no packets are shown the sender has not sent any weather packets the latest 1 day(s).
| Time | Temp. | Humidity | Pressure | Rain* | Wind** | Luminosity | Snow |
|---|---|---|---|---|---|---|---|
| 1836274797 | 27.78° C | 43% | 1011 hPa | 0 mm | 1.79 m/s, 207° | 0 W/m² | - |
| 1836274497 | 27.78° C | 43% | 1011 hPa | 0 mm | 1.79 m/s, 205° | 0 W/m² | - |
| 1836274346 | 27.78° C | 42% | 1011 hPa | 0 mm | 1.79 m/s, 196° | 0 W/m² | - |
| 1836274197 | 27.78° C | 43% | 1011 hPa | 0 mm | 1.34 m/s, 224° | 0 W/m² | - |
| 1836273897 | 27.78° C | 43% | 1010.8 hPa | 0 mm | 1.34 m/s, 212° | 0 W/m² | - |
| 1778047268 | 20° C | 49% | 1004.9 hPa | 0 mm | 1.79 m/s, 129° | 0 W/m² | - |
| 1778046968 | 20.56° C | 49% | 1004.9 hPa | 0 mm | 1.79 m/s, 127° | 0 W/m² | - |
| 1778046668 | 20.56° C | 49% | 1004.8 hPa | 0 mm | 1.79 m/s, 156° | 0 W/m² | - |
| 1778046368 | 20.56° C | 48% | 1004.7 hPa | 0 mm | 1.34 m/s, 134° | 0 W/m² | - |
| 1778046068 | 21.11° C | 48% | 1004.7 hPa | 0 mm | 1.79 m/s, 138° | 0 W/m² | - |
| 1778045768 | 21.11° C | 48% | 1004.8 hPa | 0 mm | 1.79 m/s, 129° | 0 W/m² | - |
| 1778045468 | 21.11° C | 47% | 1004.6 hPa | 0 mm | 1.34 m/s, 134° | 0 W/m² | - |
| 1778045168 | 21.67° C | 46% | 1004.6 hPa | 0 mm | 0.45 m/s, 129° | 0 W/m² | - |
| 1778044868 | 21.67° C | 46% | 1004.7 hPa | 0 mm | 0.45 m/s, 115° | 0 W/m² | - |
| 1778044568 | 21.67° C | 45% | 1004.5 hPa | 0 mm | 0.45 m/s, 134° | 0 W/m² | - |
| 1778044268 | 21.67° C | 44% | 1004.6 hPa | 0 mm | 0 m/s | 0 W/m² | - |
| 1778043968 | 21.67° C | 43% | 1004.6 hPa | 0 mm | 0.45 m/s, 126° | 0 W/m² | - |
| 1778043668 | 22.22° C | 42% | 1004.6 hPa | 0 mm | 0.45 m/s, 132° | 0 W/m² | - |
| 1778043368 | 22.22° C | 41% | 1004.6 hPa | 0 mm | 0.89 m/s, 130° | 0 W/m² | - |
| 1778043068 | 22.22° C | 40% | 1004.6 hPa | 0 mm | 1.34 m/s, 135° | 0 W/m² | - |
| 1778042768 | 22.78° C | 39% | 1004.4 hPa | 0 mm | 0.45 m/s, 128° | 0 W/m² | - |
| 1778042468 | 22.78° C | 38% | 1004.1 hPa | 0 mm | 0.45 m/s, 182° | 0 W/m² | - |
| 1778042168 | 22.78° C | 36% | 1003.9 hPa | 0 mm | 0.45 m/s, 236° | 0 W/m² | - |
| 1778041868 | 22.78° C | 36% | 1003.8 hPa | 0 mm | 0 m/s | 0 W/m² | - |
| 1778041568 | 23.33° C | 36% | 1003.8 hPa | 0 mm | 0 m/s | 0 W/m² | - |
* Rain latest hour (hover to see other rain measurements)
** Current wind speed in m/s (hover to see current wind gust speed)